Estación municipal de Seva (Osona, P.N. del Montseny)

Consulta los datos en tiempo real de la estación municipal de Seva





Hora UTC 16:00
Temperatura 14.3 ºC
Suelo 15 cm 14.0 ºC
Humedad 81.0 %
Presión 1012.4 hPa
Pluja 0.7 mm
Velocidad viento 4.9 km/h
Dirección viento S
Radiación solar 17.9 W/m²

Webcam

Datos diarios 2026-05-05



Hora UTC (invierno +1h; verano +2h)
Temperatura (ºC) Humedad (%) Presión (hPa) Velocidad viento (km/h) Precipitación (mm) Radiación solar (W/m²)
Hora UTC Aire Suelo 15 cm Humedad Presión Vel. Dir. Vel. Max Dir. Intent. máx 5 min. Rad. Sol.
00:05 8.4 6.4 98.7 1014.1 0.8 SSE 0.8 SE 0.0 0.1
00:10 8.2 6.4 98.6 1014.2 0.3 NNE 2.8 NE 0.0 0.1
00:15 8.1 6.4 98.7 1014.2 2.2 ENE 3.9 NE 0.0 0.1
00:20 8.0 6.3 98.7 1014.1 2.2 ENE 3.9 NE 0.0 0.1
00:25 8.0 6.3 98.7 1014.1 4.5 E 6.0 ENE 0.0 0.1
00:30 7.9 6.3 98.8 1014.1 5.2 ESE 9.9 ESE 0.0 0.1
00:35 8.1 6.3 99.1 1014.0 6.3 E 9.2 ESE 0.0 0.1
00:40 8.2 6.5 99.0 1014.1 4.4 ESE 7.4 ESE 0.0 0.1
00:45 8.1 6.6 98.9 1014.1 3.2 E 7.8 E 0.0 0.1
00:50 8.2 6.4 99.1 1014.0 5.6 E 8.5 ENE 0.0 0.1
00:55 8.5 6.7 99.3 1013.9 7.1 E 9.5 E 0.0 0.1
01:00 8.5 6.9 99.1 1013.9 6.4 E 8.1 E 0.0 0.1
01:05 8.4 6.9 98.9 1013.9 4.7 NE 8.5 ESE 0.0 0.1
01:10 8.2 6.8 98.8 1014.0 5.7 E 7.8 E 0.0 0.1
01:15 8.1 6.7 98.9 1013.9 3.9 E 5.6 ESE 0.0 0.1
01:20 8.1 6.5 98.8 1013.9 3.2 ESE 3.9 ESE 0.0 0.1
01:25 7.9 6.3 98.8 1014.0 2.6 SE 3.9 SE 0.0 0.1
01:30 7.9 6.3 99.0 1013.9 3.7 SE 4.9 ESE 0.0 0.1
01:35 8.0 6.3 99.0 1013.8 3.4 ESE 5.6 E 0.0 0.1
01:40 8.1 6.3 99.2 1013.8 3.4 SSE 6.7 SSE 0.0 0.1
01:45 8.2 6.4 99.2 1013.9 2.1 SSW 6.4 S 0.0 0.1
01:50 8.1 6.3 99.2 1013.8 4.6 SSE 8.1 SSE 0.0 0.1
01:55 8.2 6.4 99.3 1013.8 4.3 SSE 7.4 SE 0.0 0.1
02:00 8.2 6.5 99.2 1013.8 4.7 SSE 7.4 SSE 0.0 0.1
02:05 8.2 6.5 99.2 1013.8 3.9 S 7.4 SSE 0.0 0.1
02:10 8.1 6.5 99.2 1013.9 3.1 SSE 6.7 S 0.0 0.1
02:15 8.3 6.5 99.3 1013.8 2.5 SE 6.4 SSW 0.0 0.1
02:20 8.1 6.4 99.0 1013.9 2.7 E 5.3 E 0.0 0.0
02:25 7.9 6.3 98.8 1013.9 3.8 ESE 5.3 E 0.0 0.1
02:30 7.8 6.1 98.9 1013.8 3.8 SE 5.6 ESE 0.0 0.1
02:35 7.7 5.9 99.0 1013.8 3.0 SE 4.2 SE 0.0 0.1
02:40 7.7 5.8 99.1 1013.8 2.5 SE 3.9 SSE 0.0 0.1
02:45 7.5 5.8 99.0 1013.8 3.5 SE 4.9 SE 0.0 0.1
02:50 7.5 5.7 99.0 1013.8 2.8 ESE 3.9 ESE 0.0 0.1
02:55 7.4 5.7 99.1 1013.8 3.9 E 5.3 E 0.0 0.1
03:00 7.3 5.7 99.0 1013.8 2.4 NE 4.6 E 0.0 0.1
03:05 7.3 5.7 99.2 1013.8 3.5 E 5.6 E 0.0 0.1
03:10 7.1 5.6 99.1 1013.8 3.8 NE 5.6 ENE 0.0 0.0
03:15 7.1 5.5 99.2 1013.8 5.4 E 8.1 E 0.0 0.1
03:20 7.1 5.5 99.2 1013.8 4.5 E 6.7 ESE 0.0 0.1
03:25 7.1 5.4 99.3 1013.8 4.4 E 6.0 ENE 0.0 0.1
03:30 7.1 5.3 99.3 1013.7 4.2 E 6.2 E 0.0 0.1
03:35 7.0 5.3 99.2 1013.7 4.2 E 5.6 E 0.0 0.1
03:40 7.0 5.2 99.3 1013.6 3.3 E 4.9 ENE 0.0 0.1
03:45 7.0 5.1 99.4 1013.6 2.2 E 3.5 ENE 0.0 0.1
03:50 7.0 5.1 99.3 1013.6 2.5 E 4.2 NE 0.0 0.1
03:55 6.9 5.0 99.3 1013.5 2.6 NE 3.5 NE 0.0 0.1
04:00 6.7 5.0 99.2 1013.5 2.7 ENE 3.5 NE 0.0 0.1
04:05 6.7 4.9 99.3 1013.6 3.3 ENE 3.9 ENE 0.0 0.1
04:10 6.6 4.9 99.3 1013.6 3.5 E 4.9 ENE 0.0 0.1
04:15 6.5 4.9 99.3 1013.6 4.0 ENE 4.9 ENE 0.0 0.1
04:20 6.5 4.8 99.4 1013.5 3.2 ENE 4.9 NE 0.0 0.1
04:25 6.5 4.8 99.5 1013.5 2.8 ENE 4.2 ENE 0.0 0.1
04:30 6.4 4.7 99.4 1013.5 2.6 E 3.5 NE 0.0 0.4
04:35 6.4 4.7 99.5 1013.6 2.5 ENE 3.2 E 0.0 1.2
04:40 6.5 4.7 99.5 1013.6 1.9 NE 2.8 NE 0.0 2.4
04:45 6.3 4.6 99.4 1013.6 3.3 ENE 4.9 ENE 0.0 4.1
04:50 6.3 4.6 99.5 1013.6 2.6 ENE 4.2 NE 0.0 6.2
04:55 6.3 4.7 99.6 1013.6 1.6 ENE 2.8 ENE 0.0 8.4
05:00 6.5 4.7 99.7 1013.6 0.1 SE 1.8 SE 0.0 11.2
05:05 6.6 4.8 99.8 1013.6 0.3 ESE 1.8 ESE 0.0 14.2
05:10 6.7 4.9 99.8 1013.7 0.0 NNE 0.0 NE 0.0 17.7
05:15 6.7 4.9 99.7 1013.7 0.0 NNE 0.0 NE 0.0 21.6
05:20 6.8 5.1 99.7 1013.8 0.9 ESE 2.8 ESE 0.0 21.9
05:25 6.9 5.5 99.7 1013.9 2.9 ENE 4.9 NE 0.0 24.1
05:30 7.1 6.1 99.9 1013.9 3.6 NE 5.6 NE 0.0 31.5
05:35 7.4 6.7 100.0 1013.9 3.0 NE 4.9 NE 0.0 29.3
05:40 7.7 7.1 99.9 1014.0 3.5 NE 5.6 NNE 0.0 42.1
05:45 8.0 7.5 99.9 1014.0 3.4 NNE 5.6 NNE 0.0 43.1
05:50 8.3 7.8 99.9 1014.0 3.2 NNE 6.7 NNE 0.0 60.9
05:55 8.3 8.1 99.7 1014.0 4.1 NNE 7.8 NE 0.0 70.6
06:00 8.4 8.3 99.6 1014.0 4.4 NE 9.5 NE 0.0 63.7
06:05 8.4 8.4 99.6 1013.9 4.2 NE 9.5 NNE 0.0 71.8
06:10 8.4 8.4 99.5 1014.0 5.5 NNE 9.9 NNE 0.0 78.2
06:15 8.5 8.5 99.5 1014.1 5.6 N 8.8 NNW 0.0 75.7
06:20 8.5 8.6 99.5 1014.1 5.2 N 8.5 N 0.0 93.1
06:25 8.6 8.7 99.5 1014.1 2.5 NNE 7.1 NNE 0.0 88.3
06:30 8.6 8.7 99.3 1014.2 5.2 NNE 8.5 NNE 0.0 90.8
06:35 8.5 8.7 99.3 1014.2 3.2 NNE 7.4 NE 0.0 100.3
06:40 8.8 9.0 99.5 1014.2 6.0 N 10.2 N 0.0 106.5
06:45 8.8 9.1 99.4 1014.3 4.6 NNE 9.5 N 0.0 131.1
06:50 8.9 9.3 99.2 1014.3 5.5 NNE 11.3 N 0.0 132.0
06:55 8.9 9.4 99.2 1014.2 5.3 N 9.9 N 0.0 140.3
07:00 9.1 9.5 99.3 1014.2 5.2 N 8.5 N 0.0 143.4
07:05 9.2 9.7 99.1 1014.2 4.7 N 12.0 NNW 0.0 138.4
07:10 9.0 9.7 98.9 1014.2 9.4 NNW 12.4 NNW 0.0 135.2
07:15 9.0 9.6 99.1 1014.2 9.1 NNW 12.7 NNW 0.0 143.5
07:20 9.0 9.6 99.1 1014.2 9.4 NNW 12.7 NNW 0.0 174.4
07:25 9.1 10.0 99.2 1014.2 6.7 N 12.0 NNE 0.0 298.0
07:30 9.4 10.6 98.9 1014.0 4.4 NE 9.5 NNE 0.0 275.9
07:35 9.5 10.7 98.6 1014.0 7.8 N 13.1 NNW 0.0 224.0
07:40 9.7 11.0 98.7 1014.0 5.3 N 10.2 NNW 0.0 289.1
07:45 9.7 11.5 98.4 1014.0 7.5 NW 10.6 NNW 0.0 285.8
07:50 9.7 11.7 98.3 1014.2 5.1 WNW 8.8 NW 0.0 256.8
07:55 9.9 12.1 98.4 1014.3 5.5 NW 9.2 NW 0.0 349.4
08:00 9.9 12.6 97.9 1014.2 4.3 WNW 7.1 WNW 0.0 292.7
08:05 10.0 13.3 97.7 1014.1 4.7 WNW 7.4 WNW 0.0 473.9
08:10 10.4 14.2 97.4 1014.0 5.2 NNW 7.8 NNW 0.0 482.1
08:15 10.5 15.1 96.4 1014.1 3.2 NNE 6.4 NNW 0.0 562.3
08:20 11.2 16.0 95.8 1014.0 3.2 NNE 7.1 N 0.0 637.2
08:25 11.7 16.9 94.5 1013.9 3.0 NNE 7.1 NE 0.0 628.9
08:30 11.8 17.1 92.0 1013.9 3.4 NE 8.1 NNE 0.0 653.6
08:35 12.2 17.6 90.3 1013.9 3.9 N 7.1 NE 0.0 642.5
08:40 12.5 18.5 91.1 1013.9 5.0 NW 8.8 NW 0.0 634.0
08:45 12.4 18.9 89.6 1013.9 4.9 NW 7.4 WNW 0.0 751.3
08:50 12.6 19.0 89.0 1013.8 4.1 N 8.1 NNW 0.0 663.4
08:55 13.0 19.3 87.1 1013.8 2.9 NNW 7.1 NNW 0.0 777.6
09:00 13.5 19.5 86.2 1013.8 5.5 NW 10.2 NW 0.0 404.4
09:05 13.2 17.6 85.3 1013.8 5.7 NW 9.2 NW 0.0 286.4
09:10 12.7 16.3 86.4 1013.9 4.5 WNW 8.1 WNW 0.0 229.1
09:15 12.5 15.0 87.3 1014.0 4.6 WSW 7.4 W 0.0 139.3
09:20 12.6 14.1 88.0 1014.1 2.2 SW 4.9 SW 0.0 139.8
09:25 12.6 13.9 87.7 1014.2 2.8 WSW 6.0 WSW 0.0 178.2
09:30 12.6 14.1 87.8 1014.1 3.5 W 7.8 W 0.0 285.6
09:35 12.8 14.4 87.8 1014.1 1.7 ESE 4.6 SE 0.0 277.5
09:40 13.1 14.5 87.2 1014.1 1.4 SSE 5.3 SE 0.0 258.8
09:45 13.3 14.4 88.1 1013.9 3.5 E 6.7 ENE 0.0 204.4
09:50 13.6 14.5 88.4 1013.6 3.8 N 7.4 N 0.0 195.6
09:55 13.8 15.0 88.5 1013.6 4.9 NW 7.8 N 0.0 263.5
10:00 13.7 15.7 87.5 1013.7 3.8 WNW 5.6 NW 0.0 474.3
10:05 14.3 17.6 88.0 1013.7 5.4 WSW 10.9 WSW 0.0 848.0
10:10 14.7 19.5 85.3 1013.7 8.3 WSW 12.7 WSW 0.0 678.0
10:15 14.9 19.8 84.8 1013.7 5.0 WSW 8.8 WSW 0.0 702.8
10:20 15.2 20.1 81.8 1013.6 0.9 SW 3.2 WSW 0.0 724.4
10:25 15.9 20.4 80.2 1013.7 1.0 WSW 2.8 WSW 0.0 754.1
10:30 16.2 21.5 77.9 1013.6 3.6 NW 8.5 WNW 0.0 860.0
10:35 16.5 21.8 76.2 1013.6 3.1 WNW 7.1 NW 0.0 526.2
10:40 16.7 21.3 71.3 1013.5 3.8 N 6.7 N 0.0 477.6
10:45 16.7 20.7 68.9 1013.5 3.2 WNW 5.6 NW 0.0 341.0
10:50 16.7 19.8 67.4 1013.5 1.6 SSE 4.6 S 0.0 260.5
10:55 16.9 18.9 64.5 1013.6 1.3 SW 3.9 WNW 0.0 189.1
11:00 16.9 18.0 65.7 1013.6 3.4 SSW 9.2 S 0.0 110.0
11:05 16.5 17.1 67.3 1013.7 6.4 S 13.1 S 0.0 142.5
11:10 16.0 16.6 71.2 1013.7 6.8 SSE 16.8 S 0.2 324.8
11:15 15.7 16.6 79.1 1013.7 6.6 SE 11.6 SE 0.0 441.1
11:20 15.4 16.8 81.0 1013.7 6.3 SE 12.4 ESE 0.0 414.3
11:25 15.6 18.0 78.8 1013.6 5.7 SSE 10.2 SSE 0.0 789.6
11:30 16.6 20.5 74.1 1013.5 4.0 SSW 10.6 SSE 0.0 1010.0
11:35 17.4 22.8 69.5 1013.3 5.2 SE 14.8 SSE 0.0 855.0
11:40 17.3 22.3 69.2 1013.3 6.7 SSE 15.2 S 0.0 410.3
11:45 17.3 21.8 69.5 1013.2 4.8 SSW 11.3 S 0.0 656.2
11:50 17.8 22.7 69.7 1013.1 5.0 S 14.1 SW 0.0 965.0
11:55 18.4 24.3 65.7 1013.1 6.3 S 11.6 SSE 0.0 954.0
12:00 17.9 24.0 62.3 1013.1 5.7 ESE 10.2 SE 0.0 980.0
12:05 18.4 24.2 61.7 1013.0 5.4 SSW 11.3 SSW 0.0 749.2
12:10 18.7 25.2 60.9 1013.0 5.5 S 14.8 SSE 0.0 1077.0
12:15 18.8 25.2 59.8 1012.8 4.9 S 11.6 S 0.0 500.4
12:20 17.7 22.2 60.9 1012.8 6.5 SSE 10.9 ESE 0.0 197.5
12:25 17.2 20.2 62.9 1012.8 4.1 S 8.8 SSE 0.0 153.6
12:30 17.1 19.2 65.5 1013.0 6.6 SSW 12.4 SSW 0.0 103.7
12:35 16.6 18.4 71.7 1013.1 10.3 WSW 18.4 WSW 0.0 175.6
12:40 15.0 17.6 79.2 1013.0 14.0 W 24.3 WNW 0.0 229.6
12:45 14.0 17.0 79.6 1013.0 12.5 WNW 21.2 NW 0.0 250.6
12:50 14.1 16.9 78.8 1012.9 10.0 WNW 19.8 NW 0.0 247.9
12:55 14.5 16.9 77.2 1012.9 2.3 SW 6.0 SW 0.0 224.5
13:00 14.7 16.8 75.2 1013.0 3.4 SW 10.6 SSW 0.0 154.1
13:05 14.7 16.6 76.1 1013.1 6.2 SW 11.3 SSW 0.0 141.0
13:10 14.6 16.4 77.8 1013.2 8.5 WSW 14.5 WSW 0.0 121.3
13:15 14.4 15.9 79.2 1013.3 8.4 SW 20.1 SW 0.0 107.1
13:20 14.1 15.4 76.4 1013.4 9.3 SW 21.5 SSW 0.0 117.2
13:25 13.8 15.1 75.0 1013.3 6.7 WSW 13.1 WSW 0.0 158.9
13:30 13.8 15.3 73.5 1013.1 5.1 WSW 10.6 W 0.0 221.0
13:35 14.0 15.9 69.5 1012.9 4.7 WSW 8.1 SW 0.0 212.6
13:40 14.3 16.1 67.9 1012.9 5.7 WSW 9.2 WSW 0.0 156.2
13:45 14.2 16.1 67.4 1012.8 4.6 W 8.5 WNW 0.0 190.9
13:50 14.4 16.1 72.4 1012.8 4.1 WSW 7.8 W 0.0 150.0
13:55 14.5 15.9 71.6 1012.7 3.2 SSW 4.9 SW 0.0 104.8
14:00 14.4 15.5 71.5 1012.7 2.4 ESE 4.6 SSE 0.0 106.1
14:05 14.4 15.4 72.4 1012.6 1.9 NW 6.7 NW 0.0 122.4
14:10 14.2 15.3 78.4 1012.6 4.5 W 6.4 WSW 0.3 126.1
14:15 14.1 14.9 81.3 1012.5 1.7 S 4.6 SE 0.2 206.2
14:20 14.1 15.1 82.5 1012.4 2.3 ESE 4.6 ESE 0.0 331.2
14:25 14.4 16.3 83.0 1012.2 4.4 E 8.5 E 0.0 550.7
14:30 15.0 18.4 82.2 1012.2 6.2 E 9.9 E 0.0 815.0
14:35 15.8 20.8 79.8 1012.2 5.4 E 9.5 E 0.0 723.6
14:40 16.6 22.1 77.3 1012.2 4.9 SE 13.1 S 0.0 646.9
14:45 17.0 22.1 72.6 1012.1 3.7 SW 10.6 WNW 0.0 380.9
14:50 17.0 21.5 71.9 1012.1 6.1 WSW 11.3 WSW 0.0 303.0
14:55 16.7 20.4 72.1 1012.0 4.5 SW 10.6 WSW 0.0 216.0
15:00 16.5 19.5 71.4 1012.0 6.4 WSW 10.2 SW 0.0 183.8
15:05 16.3 18.4 73.7 1012.1 8.2 WSW 13.4 SW 0.0 104.3
15:10 16.0 17.4 74.7 1012.1 4.9 SW 10.2 WSW 0.0 115.6
15:15 16.0 17.0 75.7 1012.0 4.9 SW 12.4 S 0.0 134.8
15:20 15.8 16.6 76.4 1012.1 6.3 S 14.5 SSE 0.0 103.5
15:25 15.5 16.0 78.4 1012.2 6.3 S 15.5 SSE 0.0 70.3
15:30 15.2 15.5 79.1 1012.3 7.7 S 15.2 SSW 0.0 55.3
15:35 15.0 15.1 79.6 1012.3 4.5 S 9.2 SSW 0.0 47.9
15:40 14.8 14.8 80.2 1012.3 5.3 S 13.8 S 0.0 41.4
15:45 14.8 14.6 80.5 1012.3 4.4 SSW 9.2 SSW 0.0 40.1
15:50 14.5 14.4 79.0 1012.4 6.0 SSW 12.0 SSW 0.0 36.9
15:55 14.4 14.1 80.0 1012.3 4.3 SSW 13.1 S 0.0 25.2
16:00 14.3 14.0 81.0 1012.4 4.9 S 8.5 S 0.0 17.9
Máxima 18.8 25.2 100.0 1014.3 14.0 W 24.3 WNW 0.3 1077.0
Mínima 6.3 4.6 59.8 1012.0
Total 0.7